METAR Formatted Surface Weather Observation
Issued by NWS Corpus Christi, TX

Home | Current Version | Previous Version | Text Only | Print | Product List | Glossary On
Versions: 1 2 3 4
000
SAUS44 KCRP 091753
MTRVCT
METAR KVCT 091751Z 19010KT 10SM CLR 33/20 A3007 RMK AO2 SLP181
T03330200 10333 20239 58002



USA.gov is the U.S. government's official web portal to all federal, state and local government web resources and services.